sensor_id;sensor_type;location;lat;lon;timestamp;P1;durP1;ratioP1;P2;durP2;ratioP2
11398;SDS011;5755;48.116;11.608;2023-05-20T01:02:01;5.97;;;5.32;;
11398;SDS011;5755;48.116;11.608;2023-05-20T01:05:24;6.78;;;5.13;;
11398;SDS011;5755;48.116;11.608;2023-05-20T01:11:46;5.93;;;5.32;;
11398;SDS011;5755;48.116;11.608;2023-05-20T01:28:19;6.20;;;5.60;;
11398;SDS011;5755;48.116;11.608;2023-05-20T01:31:26;7.32;;;5.80;;
11398;SDS011;5755;48.116;11.608;2023-05-20T01:34:13;6.43;;;5.45;;
11398;SDS011;5755;48.116;11.608;2023-05-20T01:37:19;11.10;;;6.30;;
11398;SDS011;5755;48.116;11.608;2023-05-20T02:13:21;7.18;;;6.25;;
11398;SDS011;5755;48.116;11.608;2023-05-20T02:16:45;7.93;;;6.57;;
11398;SDS011;5755;48.116;11.608;2023-05-20T02:19:50;8.40;;;6.95;;
11398;SDS011;5755;48.116;11.608;2023-05-20T02:22:31;7.75;;;6.97;;
11398;SDS011;5755;48.116;11.608;2023-05-20T02:25:12;8.55;;;7.25;;
11398;SDS011;5755;48.116;11.608;2023-05-20T02:45:14;8.48;;;7.68;;
11398;SDS011;5755;48.116;11.608;2023-05-20T02:48:17;8.48;;;7.68;;
11398;SDS011;5755;48.116;11.608;2023-05-20T02:51:04;8.98;;;7.95;;
11398;SDS011;5755;48.116;11.608;2023-05-20T02:53:47;9.05;;;8.18;;
11398;SDS011;5755;48.116;11.608;2023-05-20T02:56:28;11.35;;;8.43;;
11398;SDS011;5755;48.116;11.608;2023-05-20T02:59:09;9.48;;;7.65;;
11398;SDS011;5755;48.116;11.608;2023-05-20T03:08:22;9.18;;;8.15;;
11398;SDS011;5755;48.116;11.608;2023-05-20T03:11:26;11.80;;;8.60;;
11398;SDS011;5755;48.116;11.608;2023-05-20T03:14:17;10.50;;;9.00;;
11398;SDS011;5755;48.116;11.608;2023-05-20T03:17:21;9.93;;;8.85;;
11398;SDS011;5755;48.116;11.608;2023-05-20T03:20:04;10.35;;;9.27;;
11398;SDS011;5755;48.116;11.608;2023-05-20T03:22:47;11.55;;;9.50;;
11398;SDS011;5755;48.116;11.608;2023-05-20T03:32:07;15.30;;;10.15;;
11398;SDS011;5755;48.116;11.608;2023-05-20T03:34:52;11.48;;;10.27;;
11398;SDS011;5755;48.116;11.608;2023-05-20T03:37:37;13.95;;;11.13;;
11398;SDS011;5755;48.116;11.608;2023-05-20T03:40:21;18.95;;;11.75;;
11398;SDS011;5755;48.116;11.608;2023-05-20T03:43:04;16.27;;;11.52;;
11398;SDS011;5755;48.116;11.608;2023-05-20T03:45:45;15.65;;;11.50;;
11398;SDS011;5755;48.116;11.608;2023-05-20T03:48:30;15.73;;;11.50;;
11398;SDS011;5755;48.116;11.608;2023-05-20T03:51:12;17.80;;;12.05;;
11398;SDS011;5755;48.116;11.608;2023-05-20T03:53:54;17.08;;;11.95;;
11398;SDS011;5755;48.116;11.608;2023-05-20T03:56:35;17.08;;;11.70;;
11398;SDS011;5755;48.116;11.608;2023-05-20T03:59:18;14.60;;;12.20;;
11398;SDS011;5755;48.116;11.608;2023-05-20T04:01:59;18.75;;;12.32;;
11398;SDS011;5755;48.116;11.608;2023-05-20T04:14:36;14.15;;;11.15;;
11398;SDS011;5755;48.116;11.608;2023-05-20T04:17:41;13.07;;;11.30;;
11398;SDS011;5755;48.116;11.608;2023-05-20T04:20:26;15.30;;;11.95;;
11398;SDS011;5755;48.116;11.608;2023-05-20T04:23:09;15.80;;;12.32;;
11398;SDS011;5755;48.116;11.608;2023-05-20T04:29:27;17.67;;;12.75;;
11398;SDS011;5755;48.116;11.608;2023-05-20T06:54:20;19.65;;;14.98;;
11398;SDS011;5755;48.116;11.608;2023-05-20T06:57:04;18.63;;;15.13;;
11398;SDS011;5755;48.116;11.608;2023-05-20T06:59:46;19.65;;;15.35;;
11398;SDS011;5755;48.116;11.608;2023-05-20T07:02:13;20.23;;;14.80;;
11398;SDS011;5755;48.116;11.608;2023-05-20T07:04:56;18.52;;;14.88;;
11398;SDS011;5755;48.116;11.608;2023-05-20T07:07:38;16.40;;;13.75;;
11398;SDS011;5755;48.116;11.608;2023-05-20T07:10:41;17.20;;;14.00;;
11398;SDS011;5755;48.116;11.608;2023-05-20T07:13:26;20.13;;;15.15;;
11398;SDS011;5755;48.116;11.608;2023-05-20T07:16:07;20.55;;;16.15;;
11398;SDS011;5755;48.116;11.608;2023-05-20T07:18:48;20.77;;;15.52;;
11398;SDS011;5755;48.116;11.608;2023-05-20T07:21:15;19.85;;;15.38;;
11398;SDS011;5755;48.116;11.608;2023-05-20T07:23:42;17.92;;;14.88;;
11398;SDS011;5755;48.116;11.608;2023-05-20T07:26:12;18.23;;;14.82;;
11398;SDS011;5755;48.116;11.608;2023-05-20T07:28:56;16.48;;;14.60;;
11398;SDS011;5755;48.116;11.608;2023-05-20T07:31:23;15.93;;;13.57;;
11398;SDS011;5755;48.116;11.608;2023-05-20T07:33:51;16.67;;;13.38;;
11398;SDS011;5755;48.116;11.608;2023-05-20T07:36:18;14.70;;;12.50;;
11398;SDS011;5755;48.116;11.608;2023-05-20T07:38:59;13.88;;;12.48;;
11398;SDS011;5755;48.116;11.608;2023-05-20T07:41:41;13.32;;;11.90;;
11398;SDS011;5755;48.116;11.608;2023-05-20T07:44:22;13.20;;;11.80;;
11398;SDS011;5755;48.116;11.608;2023-05-20T07:46:50;14.52;;;12.93;;
11398;SDS011;5755;48.116;11.608;2023-05-20T07:49:19;15.18;;;12.18;;
11398;SDS011;5755;48.116;11.608;2023-05-20T07:51:46;13.43;;;12.13;;
11398;SDS011;5755;48.116;11.608;2023-05-20T07:54:27;14.57;;;12.85;;
11398;SDS011;5755;48.116;11.608;2023-05-20T07:56:55;12.40;;;11.07;;
11398;SDS011;5755;48.116;11.608;2023-05-20T07:59:37;14.02;;;11.20;;
11398;SDS011;5755;48.116;11.608;2023-05-20T08:02:05;12.32;;;11.02;;
11398;SDS011;5755;48.116;11.608;2023-05-20T08:04:52;11.57;;;10.38;;
11398;SDS011;5755;48.116;11.608;2023-05-20T08:07:20;11.35;;;9.80;;
11398;SDS011;5755;48.116;11.608;2023-05-20T08:10:01;12.02;;;10.20;;
11398;SDS011;5755;48.116;11.608;2023-05-20T08:12:30;11.07;;;9.93;;
11398;SDS011;5755;48.116;11.608;2023-05-20T08:15:11;10.95;;;9.90;;
11398;SDS011;5755;48.116;11.608;2023-05-20T08:17:51;10.73;;;9.50;;
11398;SDS011;5755;48.116;11.608;2023-05-20T08:20:18;12.38;;;10.32;;
11398;SDS011;5755;48.116;11.608;2023-05-20T08:22:50;11.02;;;9.23;;
11398;SDS011;5755;48.116;11.608;2023-05-20T08:25:17;12.48;;;10.60;;
11398;SDS011;5755;48.116;11.608;2023-05-20T08:27:46;11.32;;;10.07;;
11398;SDS011;5755;48.116;11.608;2023-05-20T08:30:33;9.15;;;8.25;;
11398;SDS011;5755;48.116;11.608;2023-05-20T08:33:22;9.35;;;8.35;;
11398;SDS011;5755;48.116;11.608;2023-05-20T08:35:50;8.90;;;8.00;;
11398;SDS011;5755;48.116;11.608;2023-05-20T08:39:02;9.35;;;8.35;;
11398;SDS011;5755;48.116;11.608;2023-05-20T08:41:44;9.18;;;8.27;;
11398;SDS011;5755;48.116;11.608;2023-05-20T08:44:28;9.77;;;7.85;;
11398;SDS011;5755;48.116;11.608;2023-05-20T08:47:09;8.07;;;7.07;;
11398;SDS011;5755;48.116;11.608;2023-05-20T08:49:37;7.25;;;6.47;;
11398;SDS011;5755;48.116;11.608;2023-05-20T08:52:04;11.02;;;7.38;;
11398;SDS011;5755;48.116;11.608;2023-05-20T08:54:47;9.13;;;7.03;;
11398;SDS011;5755;48.116;11.608;2023-05-20T08:57:15;7.82;;;6.93;;
11398;SDS011;5755;48.116;11.608;2023-05-20T08:59:46;7.18;;;6.57;;
11398;SDS011;5755;48.116;11.608;2023-05-20T09:02:12;10.13;;;7.18;;
11398;SDS011;5755;48.116;11.608;2023-05-20T09:10:04;7.30;;;6.60;;
11398;SDS011;5755;48.116;11.608;2023-05-20T09:12:58;6.30;;;5.70;;
11398;SDS011;5755;48.116;11.608;2023-05-20T09:24:25;5.82;;;4.97;;
11398;SDS011;5755;48.116;11.608;2023-05-20T09:27:06;5.55;;;4.72;;
11398;SDS011;5755;48.116;11.608;2023-05-20T09:29:53;4.95;;;4.20;;
11398;SDS011;5755;48.116;11.608;2023-05-20T09:32:33;5.20;;;4.40;;
11398;SDS011;5755;48.116;11.608;2023-05-20T09:35:01;5.93;;;4.13;;
11398;SDS011;5755;48.116;11.608;2023-05-20T09:37:43;4.53;;;4.13;;
11398;SDS011;5755;48.116;11.608;2023-05-20T09:54:09;4.57;;;4.13;;
11398;SDS011;5755;48.116;11.608;2023-05-20T09:57:17;4.63;;;4.10;;
11398;SDS011;5755;48.116;11.608;2023-05-20T09:59:45;3.95;;;3.65;;
11398;SDS011;5755;48.116;11.608;2023-05-20T10:05:55;4.72;;;4.07;;
11398;SDS011;5755;48.116;11.608;2023-05-20T10:09:04;4.20;;;3.80;;
11398;SDS011;5755;48.116;11.608;2023-05-20T10:12:16;3.95;;;3.60;;
11398;SDS011;5755;48.116;11.608;2023-05-20T10:19:00;4.47;;;3.80;;
11398;SDS011;5755;48.116;11.608;2023-05-20T10:21:55;6.32;;;3.53;;
11398;SDS011;5755;48.116;11.608;2023-05-20T10:24:37;4.00;;;3.60;;
11398;SDS011;5755;48.116;11.608;2023-05-20T10:27:47;4.32;;;3.65;;
11398;SDS011;5755;48.116;11.608;2023-05-20T10:30:50;4.13;;;3.30;;
11398;SDS011;5755;48.116;11.608;2023-05-20T10:33:52;3.63;;;3.17;;
11398;SDS011;5755;48.116;11.608;2023-05-20T10:36:37;3.58;;;3.20;;
11398;SDS011;5755;48.116;11.608;2023-05-20T10:39:43;3.08;;;2.78;;
11398;SDS011;5755;48.116;11.608;2023-05-20T10:42:28;3.60;;;3.30;;
11398;SDS011;5755;48.116;11.608;2023-05-20T10:48:26;3.65;;;2.95;;
11398;SDS011;5755;48.116;11.608;2023-05-20T10:51:16;3.05;;;2.78;;
11398;SDS011;5755;48.116;11.608;2023-05-20T11:02:24;3.38;;;3.10;;
11398;SDS011;5755;48.116;11.608;2023-05-20T11:05:07;3.30;;;3.00;;
11398;SDS011;5755;48.116;11.608;2023-05-20T11:07:59;3.40;;;3.15;;
11398;SDS011;5755;48.116;11.608;2023-05-20T11:10:41;3.38;;;3.08;;
11398;SDS011;5755;48.116;11.608;2023-05-20T11:13:40;3.42;;;3.10;;
11398;SDS011;5755;48.116;11.608;2023-05-20T11:16:08;3.30;;;3.00;;
11398;SDS011;5755;48.116;11.608;2023-05-20T11:18:50;3.17;;;2.70;;
11398;SDS011;5755;48.116;11.608;2023-05-20T11:21:32;3.20;;;2.90;;
11398;SDS011;5755;48.116;11.608;2023-05-20T11:24:36;3.58;;;3.17;;
11398;SDS011;5755;48.116;11.608;2023-05-20T11:39:12;3.60;;;3.30;;
11398;SDS011;5755;48.116;11.608;2023-05-20T11:41:53;5.82;;;3.08;;
11398;SDS011;5755;48.116;11.608;2023-05-20T11:44:20;4.35;;;3.20;;
11398;SDS011;5755;48.116;11.608;2023-05-20T11:50:23;3.47;;;2.90;;
11398;SDS011;5755;48.116;11.608;2023-05-20T11:59:46;3.63;;;3.28;;
11398;SDS011;5755;48.116;11.608;2023-05-20T12:02:28;3.28;;;2.97;;
11398;SDS011;5755;48.116;11.608;2023-05-20T12:05:19;3.75;;;3.05;;
11398;SDS011;5755;48.116;11.608;2023-05-20T12:08:38;3.53;;;2.90;;
11398;SDS011;5755;48.116;11.608;2023-05-20T13:11:27;6.68;;;5.40;;
11398;SDS011;5755;48.116;11.608;2023-05-20T13:18:05;7.82;;;6.07;;
11398;SDS011;5755;48.116;11.608;2023-05-20T13:20:47;7.00;;;6.20;;
11398;SDS011;5755;48.116;11.608;2023-05-20T13:23:29;7.97;;;5.93;;
11398;SDS011;5755;48.116;11.608;2023-05-20T13:26:10;7.32;;;5.85;;
11398;SDS011;5755;48.116;11.608;2023-05-20T13:28:52;6.72;;;5.90;;
11398;SDS011;5755;48.116;11.608;2023-05-20T13:31:36;7.72;;;6.50;;
11398;SDS011;5755;48.116;11.608;2023-05-20T13:34:17;8.77;;;6.43;;
11398;SDS011;5755;48.116;11.608;2023-05-20T13:36:44;6.97;;;5.68;;
11398;SDS011;5755;48.116;11.608;2023-05-20T13:39:11;7.05;;;5.93;;
11398;SDS011;5755;48.116;11.608;2023-05-20T13:41:38;6.88;;;6.18;;
11398;SDS011;5755;48.116;11.608;2023-05-20T13:44:28;8.48;;;6.28;;
11398;SDS011;5755;48.116;11.608;2023-05-20T13:47:26;6.38;;;5.78;;
11398;SDS011;5755;48.116;11.608;2023-05-20T13:50:10;7.63;;;6.47;;
11398;SDS011;5755;48.116;11.608;2023-05-20T13:52:51;9.88;;;6.32;;
11398;SDS011;5755;48.116;11.608;2023-05-20T13:55:18;7.10;;;6.40;;
11398;SDS011;5755;48.116;11.608;2023-05-20T13:57:59;12.88;;;6.78;;
11398;SDS011;5755;48.116;11.608;2023-05-20T14:17:28;6.95;;;6.35;;
11398;SDS011;5755;48.116;11.608;2023-05-20T14:20:13;10.40;;;6.53;;
11398;SDS011;5755;48.116;11.608;2023-05-20T14:22:55;7.20;;;6.50;;
11398;SDS011;5755;48.116;11.608;2023-05-20T14:28:13;7.40;;;6.13;;
11398;SDS011;5755;48.116;11.608;2023-05-20T14:30:41;9.60;;;6.68;;
11398;SDS011;5755;48.116;11.608;2023-05-20T14:33:22;7.25;;;6.10;;
11398;SDS011;5755;48.116;11.608;2023-05-20T14:41:36;7.70;;;6.90;;
11398;SDS011;5755;48.116;11.608;2023-05-20T14:44:03;7.68;;;6.47;;
11398;SDS011;5755;48.116;11.608;2023-05-20T14:46:32;9.68;;;6.40;;
11398;SDS011;5755;48.116;11.608;2023-05-20T14:48:59;7.03;;;6.32;;
11398;SDS011;5755;48.116;11.608;2023-05-20T16:27:19;6.93;;;6.07;;
11398;SDS011;5755;48.116;11.608;2023-05-20T16:30:00;8.45;;;6.95;;
11398;SDS011;5755;48.116;11.608;2023-05-20T16:32:27;8.93;;;6.60;;
11398;SDS011;5755;48.116;11.608;2023-05-20T16:34:55;7.30;;;6.60;;
11398;SDS011;5755;48.116;11.608;2023-05-20T16:37:21;7.47;;;6.78;;
11398;SDS011;5755;48.116;11.608;2023-05-20T16:39:49;8.13;;;6.82;;
11398;SDS011;5755;48.116;11.608;2023-05-20T16:42:18;8.05;;;6.70;;
11398;SDS011;5755;48.116;11.608;2023-05-20T16:44:45;7.93;;;6.30;;
11398;SDS011;5755;48.116;11.608;2023-05-20T16:47:13;11.60;;;6.97;;
11398;SDS011;5755;48.116;11.608;2023-05-20T16:49:55;8.50;;;6.47;;
11398;SDS011;5755;48.116;11.608;2023-05-20T16:52:22;11.98;;;6.97;;
11398;SDS011;5755;48.116;11.608;2023-05-20T16:54:49;9.25;;;7.07;;
11398;SDS011;5755;48.116;11.608;2023-05-20T16:57:17;7.75;;;6.95;;
11398;SDS011;5755;48.116;11.608;2023-05-20T16:59:44;8.85;;;6.97;;
11398;SDS011;5755;48.116;11.608;2023-05-20T17:02:11;8.13;;;6.93;;
11398;SDS011;5755;48.116;11.608;2023-05-20T17:04:52;9.70;;;6.97;;
11398;SDS011;5755;48.116;11.608;2023-05-20T17:07:18;8.77;;;7.30;;
11398;SDS011;5755;48.116;11.608;2023-05-20T17:09:45;8.02;;;7.28;;
11398;SDS011;5755;48.116;11.608;2023-05-20T17:31:24;7.65;;;6.82;;
11398;SDS011;5755;48.116;11.608;2023-05-20T17:34:28;8.85;;;7.18;;
11398;SDS011;5755;48.116;11.608;2023-05-20T17:37:08;7.80;;;6.97;;
11398;SDS011;5755;48.116;11.608;2023-05-20T17:43:10;9.93;;;7.13;;
11398;SDS011;5755;48.116;11.608;2023-05-20T18:03:30;11.55;;;7.60;;
11398;SDS011;5755;48.116;11.608;2023-05-20T18:06:11;11.98;;;7.97;;
11398;SDS011;5755;48.116;11.608;2023-05-20T18:08:38;8.95;;;7.32;;
11398;SDS011;5755;48.116;11.608;2023-05-20T18:11:06;9.77;;;7.70;;
11398;SDS011;5755;48.116;11.608;2023-05-20T18:13:33;11.50;;;7.47;;
11398;SDS011;5755;48.116;11.608;2023-05-20T18:16:00;8.32;;;7.53;;
11398;SDS011;5755;48.116;11.608;2023-05-20T18:18:27;10.90;;;7.82;;
11398;SDS011;5755;48.116;11.608;2023-05-20T18:21:09;8.93;;;8.02;;
11398;SDS011;5755;48.116;11.608;2023-05-20T18:23:37;10.20;;;7.70;;
11398;SDS011;5755;48.116;11.608;2023-05-20T18:26:09;9.77;;;8.10;;
11398;SDS011;5755;48.116;11.608;2023-05-20T18:29:22;9.23;;;8.18;;
11398;SDS011;5755;48.116;11.608;2023-05-20T18:32:03;10.35;;;7.63;;
11398;SDS011;5755;48.116;11.608;2023-05-20T18:34:31;8.82;;;7.55;;
11398;SDS011;5755;48.116;11.608;2023-05-20T18:37:12;9.75;;;7.63;;
11398;SDS011;5755;48.116;11.608;2023-05-20T18:39:39;9.80;;;8.20;;
11398;SDS011;5755;48.116;11.608;2023-05-20T18:42:07;8.38;;;7.57;;
11398;SDS011;5755;48.116;11.608;2023-05-20T18:44:36;8.55;;;7.72;;
11398;SDS011;5755;48.116;11.608;2023-05-20T18:47:04;9.43;;;8.35;;
11398;SDS011;5755;48.116;11.608;2023-05-20T18:49:33;9.45;;;8.45;;
11398;SDS011;5755;48.116;11.608;2023-05-20T18:52:15;9.60;;;7.85;;
11398;SDS011;5755;48.116;11.608;2023-05-20T18:54:43;11.23;;;8.27;;
11398;SDS011;5755;48.116;11.608;2023-05-20T18:57:24;8.52;;;7.72;;
11398;SDS011;5755;48.116;11.608;2023-05-20T18:59:51;11.40;;;8.35;;
11398;SDS011;5755;48.116;11.608;2023-05-20T19:02:18;9.85;;;8.45;;
11398;SDS011;5755;48.116;11.608;2023-05-20T19:04:47;9.63;;;8.73;;
11398;SDS011;5755;48.116;11.608;2023-05-20T19:07:14;9.63;;;8.63;;
11398;SDS011;5755;48.116;11.608;2023-05-20T19:09:54;9.95;;;8.52;;
11398;SDS011;5755;48.116;11.608;2023-05-20T19:12:22;10.07;;;7.97;;
11398;SDS011;5755;48.116;11.608;2023-05-20T19:15:05;12.60;;;8.55;;
11398;SDS011;5755;48.116;11.608;2023-05-20T19:17:32;11.73;;;8.18;;
11398;SDS011;5755;48.116;11.608;2023-05-20T19:20:01;10.73;;;8.43;;
11398;SDS011;5755;48.116;11.608;2023-05-20T19:22:48;11.90;;;8.63;;
11398;SDS011;5755;48.116;11.608;2023-05-20T19:25:16;10.63;;;8.65;;
11398;SDS011;5755;48.116;11.608;2023-05-20T19:27:43;9.48;;;8.50;;
11398;SDS011;5755;48.116;11.608;2023-05-20T19:30:10;9.85;;;8.43;;
11398;SDS011;5755;48.116;11.608;2023-05-20T19:32:37;10.38;;;8.27;;
11398;SDS011;5755;48.116;11.608;2023-05-20T19:35:07;8.82;;;7.90;;
11398;SDS011;5755;48.116;11.608;2023-05-20T19:37:49;10.20;;;8.30;;
11398;SDS011;5755;48.116;11.608;2023-05-20T19:40:17;9.50;;;8.05;;
11398;SDS011;5755;48.116;11.608;2023-05-20T19:42:58;9.15;;;8.25;;
11398;SDS011;5755;48.116;11.608;2023-05-20T19:45:27;11.05;;;8.60;;
11398;SDS011;5755;48.116;11.608;2023-05-20T19:47:54;8.65;;;7.72;;
11398;SDS011;5755;48.116;11.608;2023-05-20T19:50:37;12.73;;;9.10;;
11398;SDS011;5755;48.116;11.608;2023-05-20T19:53:07;9.90;;;8.90;;
11398;SDS011;5755;48.116;11.608;2023-05-20T19:55:34;10.60;;;7.85;;
11398;SDS011;5755;48.116;11.608;2023-05-20T19:58:02;9.10;;;8.25;;
11398;SDS011;5755;48.116;11.608;2023-05-20T20:00:49;9.77;;;8.48;;
11398;SDS011;5755;48.116;11.608;2023-05-20T20:03:16;9.82;;;8.82;;
11398;SDS011;5755;48.116;11.608;2023-05-20T20:05:45;11.73;;;8.85;;
11398;SDS011;5755;48.116;11.608;2023-05-20T20:08:12;11.05;;;8.52;;
11398;SDS011;5755;48.116;11.608;2023-05-20T20:10:39;10.85;;;8.65;;
11398;SDS011;5755;48.116;11.608;2023-05-20T20:13:07;11.75;;;8.80;;
11398;SDS011;5755;48.116;11.608;2023-05-20T20:15:33;10.23;;;8.25;;
11398;SDS011;5755;48.116;11.608;2023-05-20T20:18:01;11.07;;;9.00;;
11398;SDS011;5755;48.116;11.608;2023-05-20T20:20:42;12.27;;;8.93;;
11398;SDS011;5755;48.116;11.608;2023-05-20T20:23:13;12.55;;;8.80;;
11398;SDS011;5755;48.116;11.608;2023-05-20T20:25:40;10.52;;;9.45;;
11398;SDS011;5755;48.116;11.608;2023-05-20T20:28:08;9.60;;;8.60;;
11398;SDS011;5755;48.116;11.608;2023-05-20T20:30:49;9.98;;;8.68;;
11398;SDS011;5755;48.116;11.608;2023-05-20T20:33:16;11.02;;;9.25;;
11398;SDS011;5755;48.116;11.608;2023-05-20T20:35:57;9.95;;;8.73;;
11398;SDS011;5755;48.116;11.608;2023-05-20T20:38:26;10.15;;;8.77;;
11398;SDS011;5755;48.116;11.608;2023-05-20T20:40:54;10.80;;;9.00;;
11398;SDS011;5755;48.116;11.608;2023-05-20T20:43:23;11.80;;;9.40;;
11398;SDS011;5755;48.116;11.608;2023-05-20T20:45:53;10.05;;;8.98;;
11398;SDS011;5755;48.116;11.608;2023-05-20T20:48:20;10.30;;;9.07;;
11398;SDS011;5755;48.116;11.608;2023-05-20T20:51:01;9.85;;;8.85;;
11398;SDS011;5755;48.116;11.608;2023-05-20T20:53:29;10.43;;;8.93;;
11398;SDS011;5755;48.116;11.608;2023-05-20T20:55:56;11.75;;;9.10;;
11398;SDS011;5755;48.116;11.608;2023-05-20T20:58:23;9.75;;;8.75;;
11398;SDS011;5755;48.116;11.608;2023-05-20T21:00:51;10.23;;;9.20;;
11398;SDS011;5755;48.116;11.608;2023-05-20T21:03:18;9.82;;;8.82;;
11398;SDS011;5755;48.116;11.608;2023-05-20T21:05:47;11.00;;;8.68;;
11398;SDS011;5755;48.116;11.608;2023-05-20T21:08:15;10.98;;;8.65;;
11398;SDS011;5755;48.116;11.608;2023-05-20T21:10:47;10.18;;;8.95;;
11398;SDS011;5755;48.116;11.608;2023-05-20T21:13:14;11.85;;;9.35;;
11398;SDS011;5755;48.116;11.608;2023-05-20T21:15:41;9.80;;;8.77;;
11398;SDS011;5755;48.116;11.608;2023-05-20T21:18:28;12.43;;;8.23;;
11398;SDS011;5755;48.116;11.608;2023-05-20T21:20:55;10.23;;;8.60;;
11398;SDS011;5755;48.116;11.608;2023-05-20T21:23:22;11.02;;;8.02;;
11398;SDS011;5755;48.116;11.608;2023-05-20T21:25:51;10.25;;;9.02;;
11398;SDS011;5755;48.116;11.608;2023-05-20T21:28:31;9.73;;;7.80;;
11398;SDS011;5755;48.116;11.608;2023-05-20T21:30:58;11.38;;;9.48;;
11398;SDS011;5755;48.116;11.608;2023-05-20T21:33:26;11.77;;;8.85;;
11398;SDS011;5755;48.116;11.608;2023-05-20T21:35:53;9.75;;;8.75;;
11398;SDS011;5755;48.116;11.608;2023-05-20T21:38:19;10.05;;;8.95;;
11398;SDS011;5755;48.116;11.608;2023-05-20T21:40:59;9.80;;;8.80;;
11398;SDS011;5755;48.116;11.608;2023-05-20T21:43:26;9.55;;;8.57;;
11398;SDS011;5755;48.116;11.608;2023-05-20T21:45:54;10.93;;;8.95;;
11398;SDS011;5755;48.116;11.608;2023-05-20T21:48:21;10.65;;;8.70;;
11398;SDS011;5755;48.116;11.608;2023-05-20T21:50:48;9.30;;;8.27;;
11398;SDS011;5755;48.116;11.608;2023-05-20T21:53:15;9.60;;;8.60;;
11398;SDS011;5755;48.116;11.608;2023-05-20T21:55:44;10.00;;;8.25;;
11398;SDS011;5755;48.116;11.608;2023-05-20T21:58:13;9.13;;;8.23;;
11398;SDS011;5755;48.116;11.608;2023-05-20T22:00:53;9.68;;;8.43;;
11398;SDS011;5755;48.116;11.608;2023-05-20T22:03:20;10.57;;;9.23;;
11398;SDS011;5755;48.116;11.608;2023-05-20T22:05:48;9.27;;;8.38;;
11398;SDS011;5755;48.116;11.608;2023-05-20T22:08:15;12.95;;;9.02;;
11398;SDS011;5755;48.116;11.608;2023-05-20T22:11:02;8.68;;;7.78;;
11398;SDS011;5755;48.116;11.608;2023-05-20T22:13:34;9.40;;;8.48;;
11398;SDS011;5755;48.116;11.608;2023-05-20T22:16:05;9.90;;;8.90;;
11398;SDS011;5755;48.116;11.608;2023-05-20T22:18:33;13.55;;;8.73;;
11398;SDS011;5755;48.116;11.608;2023-05-20T22:21:00;10.38;;;8.48;;
11398;SDS011;5755;48.116;11.608;2023-05-20T22:23:27;10.40;;;9.25;;
11398;SDS011;5755;48.116;11.608;2023-05-20T22:25:55;10.75;;;8.82;;
11398;SDS011;5755;48.116;11.608;2023-05-20T22:28:22;10.00;;;8.73;;
11398;SDS011;5755;48.116;11.608;2023-05-20T22:30:51;9.55;;;8.60;;
11398;SDS011;5755;48.116;11.608;2023-05-20T22:33:32;9.40;;;8.40;;
11398;SDS011;5755;48.116;11.608;2023-05-20T22:36:01;10.02;;;9.02;;
11398;SDS011;5755;48.116;11.608;2023-05-20T22:38:28;8.95;;;8.10;;
11398;SDS011;5755;48.116;11.608;2023-05-20T22:40:55;10.60;;;9.15;;
11398;SDS011;5755;48.116;11.608;2023-05-20T22:43:22;10.63;;;8.65;;
11398;SDS011;5755;48.116;11.608;2023-05-20T22:46:04;12.60;;;7.85;;
11398;SDS011;5755;48.116;11.608;2023-05-20T22:48:31;9.30;;;7.78;;
11398;SDS011;5755;48.116;11.608;2023-05-20T22:50:58;10.18;;;8.02;;
11398;SDS011;5755;48.116;11.608;2023-05-20T22:53:28;10.50;;;8.73;;
11398;SDS011;5755;48.116;11.608;2023-05-20T22:55:55;10.70;;;8.25;;
11398;SDS011;5755;48.116;11.608;2023-05-20T22:58:23;9.35;;;8.38;;
11398;SDS011;5755;48.116;11.608;2023-05-20T23:01:12;9.27;;;8.30;;
11398;SDS011;5755;48.116;11.608;2023-05-20T23:03:40;10.07;;;8.10;;
11398;SDS011;5755;48.116;11.608;2023-05-20T23:06:08;9.13;;;7.90;;
11398;SDS011;5755;48.116;11.608;2023-05-20T23:08:35;9.13;;;8.23;;
11398;SDS011;5755;48.116;11.608;2023-05-20T23:11:02;9.85;;;7.68;;
11398;SDS011;5755;48.116;11.608;2023-05-20T23:13:29;11.77;;;7.53;;
11398;SDS011;5755;48.116;11.608;2023-05-20T23:15:56;9.13;;;8.23;;
11398;SDS011;5755;48.116;11.608;2023-05-20T23:18:24;8.38;;;7.55;;
11398;SDS011;5755;48.116;11.608;2023-05-20T23:20:55;9.02;;;7.93;;
11398;SDS011;5755;48.116;11.608;2023-05-20T23:23:23;8.75;;;7.35;;
11398;SDS011;5755;48.116;11.608;2023-05-20T23:25:50;11.38;;;7.95;;
11398;SDS011;5755;48.116;11.608;2023-05-20T23:28:17;12.45;;;8.63;;
11398;SDS011;5755;48.116;11.608;2023-05-20T23:30:45;8.70;;;7.35;;
11398;SDS011;5755;48.116;11.608;2023-05-20T23:33:12;8.63;;;7.72;;
11398;SDS011;5755;48.116;11.608;2023-05-20T23:35:42;8.95;;;8.05;;
11398;SDS011;5755;48.116;11.608;2023-05-20T23:38:09;8.93;;;7.82;;
11398;SDS011;5755;48.116;11.608;2023-05-20T23:40:36;10.60;;;8.20;;
11398;SDS011;5755;48.116;11.608;2023-05-20T23:43:03;9.93;;;7.25;;
11398;SDS011;5755;48.116;11.608;2023-05-20T23:45:31;10.82;;;7.47;;
11398;SDS011;5755;48.116;11.608;2023-05-20T23:47:57;13.00;;;8.10;;
11398;SDS011;5755;48.116;11.608;2023-05-20T23:50:25;8.57;;;7.72;;
11398;SDS011;5755;48.116;11.608;2023-05-20T23:52:54;8.07;;;7.28;;
11398;SDS011;5755;48.116;11.608;2023-05-20T23:55:22;10.07;;;7.43;;
11398;SDS011;5755;48.116;11.608;2023-05-20T23:57:49;8.20;;;7.40;;
